Time;durP1;ratioP1;P1;durP2;ratioP2;P2;SDS_P1;SDS_P2;PMS_P1;PMS_P2;Temp;Humidity;BMP_temperature;BMP_pressure;BME280_temperature;BME280_humidity;BME280_pressure;Samples;Min_cycle;Max_cycle;Signal;HPM_P1;HPM_P2
2023/09/02 00:01:49;;;;;;;47.70;38.05;;;18.60;99.90;;;;;;5050018;28;20051;-74
2023/09/02 00:04:16;;;;;;;47.75;37.50;;;18.50;99.90;;;;;;5050421;28;20021;-73
2023/09/02 00:06:41;;;;;;;43.72;35.30;;;18.50;99.90;;;;;;5049669;28;20072;-74
2023/09/02 00:09:07;;;;;;;44.33;35.38;;;18.40;99.90;;;;;;5049725;28;20106;-73
2023/09/02 00:11:32;;;;;;;42.63;34.45;;;18.30;99.90;;;;;;5050133;28;20025;-73
2023/09/02 00:13:58;;;;;;;44.72;32.97;;;18.30;99.90;;;;;;5050140;28;20075;-73
2023/09/02 00:16:23;;;;;;;47.30;37.35;;;18.20;99.90;;;;;;5049982;28;20032;-73
2023/09/02 00:18:49;;;;;;;50.78;36.83;;;18.10;99.90;;;;;;5049268;28;20108;-73
2023/09/02 00:21:14;;;;;;;42.20;32.42;;;18.10;99.90;;;;;;5049845;28;20036;-73
2023/09/02 00:23:45;;;;;;;45.45;37.05;;;18.00;99.90;;;;;;5049580;28;20502;-73
2023/09/02 00:26:12;;;;;;;45.65;35.00;;;18.00;99.90;;;;;;5049062;28;20032;-73
2023/09/02 00:28:38;;;;;;;38.40;31.70;;;17.90;99.90;;;;;;5050451;28;20045;-73
2023/09/02 00:31:03;;;;;;;46.08;33.78;;;17.90;99.90;;;;;;5049513;28;20020;-73
2023/09/02 00:33:29;;;;;;;45.83;34.33;;;17.90;99.90;;;;;;5050718;28;20353;-74
2023/09/02 00:35:54;;;;;;;46.72;34.63;;;17.80;99.90;;;;;;5050041;28;20057;-73
2023/09/02 00:38:20;;;;;;;46.40;34.88;;;17.80;99.90;;;;;;5041999;28;20126;-73
2023/09/02 00:40:56;;;;;;;38.45;31.63;;;17.80;99.90;;;;;;5050782;28;20526;-73
2023/09/02 00:43:22;;;;;;;42.78;33.47;;;17.80;99.90;;;;;;5051086;28;20474;-73
2023/09/02 00:45:47;;;;;;;38.40;31.38;;;17.80;99.90;;;;;;5050283;28;20039;-73
2023/09/02 00:48:13;;;;;;;40.65;31.63;;;17.70;99.90;;;;;;5050953;28;20021;-73
2023/09/02 00:50:39;;;;;;;43.35;32.90;;;17.70;99.90;;;;;;5056813;28;20069;-73
2023/09/02 00:53:04;;;;;;;39.33;29.35;;;17.70;99.90;;;;;;5048967;28;20096;-73
2023/09/02 00:55:30;;;;;;;41.50;31.92;;;17.70;99.90;;;;;;5048889;28;20049;-73
2023/09/02 00:57:58;;;;;;;45.10;31.02;;;17.60;99.90;;;;;;5048769;28;20065;-73
2023/09/02 01:00:23;;;;;;;39.25;32.25;;;17.60;99.90;;;;;;5054043;28;20107;-73
2023/09/02 01:02:50;;;;;;;43.53;33.20;;;17.60;99.90;;;;;;5048430;28;20096;-74
2023/09/02 01:05:15;;;;;;;35.70;30.30;;;17.60;99.90;;;;;;5058572;28;20024;-73
2023/09/02 01:07:43;;;;;;;35.95;29.48;;;17.60;99.90;;;;;;5064617;28;20074;-73
2023/09/02 01:10:09;;;;;;;36.92;29.17;;;17.60;99.90;;;;;;5061495;28;20107;-73
2023/09/02 01:12:35;;;;;;;39.78;31.08;;;17.60;99.90;;;;;;5066312;28;20790;-73
2023/09/02 01:15:00;;;;;;;38.65;29.27;;;17.50;99.90;;;;;;5066092;28;20024;-73
2023/09/02 01:17:26;;;;;;;37.15;30.52;;;17.50;99.90;;;;;;5063947;28;20037;-73
2023/09/02 01:19:52;;;;;;;37.60;29.48;;;17.60;99.90;;;;;;5061428;28;20032;-73
2023/09/02 01:22:51;;;;;;;35.92;27.55;;;17.70;99.90;;;;;;5066774;28;20020;-73
2023/09/02 01:25:47;;;;;;;43.22;29.02;;;17.70;99.90;;;;;;5058618;28;20048;-74
2023/09/02 01:28:18;;;;;;;37.45;28.17;;;17.80;99.90;;;;;;5067189;28;20020;-74
2023/09/02 01:30:48;;;;;;;44.17;30.40;;;17.80;99.90;;;;;;5068012;28;20066;-73
2023/09/02 01:33:17;;;;;;;40.25;29.20;;;17.80;99.90;;;;;;5066293;28;20095;-73
2023/09/02 01:35:45;;;;;;;38.03;28.58;;;17.80;99.90;;;;;;5067670;28;20107;-73
2023/09/02 01:38:11;;;;;;;41.95;31.08;;;17.90;99.90;;;;;;5064479;28;20029;-73
2023/09/02 01:40:38;;;;;;;36.25;29.38;;;17.90;99.90;;;;;;5067336;28;20030;-73
2023/09/02 01:43:04;;;;;;;39.53;30.38;;;17.90;99.90;;;;;;5064843;28;20048;-74
2023/09/02 01:45:34;;;;;;;39.92;29.38;;;17.90;99.90;;;;;;5067543;28;20032;-73
2023/09/02 01:48:00;;;;;;;41.13;31.30;;;18.00;99.90;;;;;;5065674;28;20481;-73
2023/09/02 01:50:30;;;;;;;38.15;30.15;;;18.00;99.90;;;;;;5067106;28;20146;-73
2023/09/02 01:52:57;;;;;;;48.85;34.58;;;18.00;99.90;;;;;;5061205;28;20075;-73
2023/09/02 01:55:23;;;;;;;44.92;33.10;;;18.00;99.90;;;;;;5050725;28;20574;-73
2023/09/02 01:57:49;;;;;;;44.78;32.70;;;18.00;99.90;;;;;;5064577;28;20024;-73
2023/09/02 02:00:15;;;;;;;39.75;30.90;;;18.00;99.90;;;;;;5061813;28;20108;-73
2023/09/02 02:02:42;;;;;;;48.17;33.05;;;18.00;99.90;;;;;;5057178;28;20039;-74
2023/09/02 02:05:11;;;;;;;46.65;33.65;;;18.00;99.90;;;;;;5057579;28;20024;-73
2023/09/02 02:07:41;;;;;;;43.15;31.67;;;18.00;99.90;;;;;;5065424;28;20037;-73
2023/09/02 02:10:11;;;;;;;47.80;31.80;;;18.00;99.90;;;;;;5061338;28;20490;-73
2023/09/02 02:12:40;;;;;;;46.80;30.65;;;18.10;99.90;;;;;;5065303;28;20075;-74
2023/09/02 02:15:10;;;;;;;52.80;32.85;;;18.10;99.90;;;;;;5060999;28;20036;-74
2023/09/02 02:17:36;;;;;;;52.22;31.83;;;18.10;99.90;;;;;;5036728;28;20119;-73
2023/09/02 02:20:02;;;;;;;56.38;34.65;;;18.10;99.90;;;;;;5054263;28;20371;-74
2023/09/02 02:22:28;;;;;;;44.42;30.30;;;18.10;99.90;;;;;;5051649;28;20044;-74
2023/09/02 02:24:53;;;;;;;48.25;29.95;;;18.10;99.90;;;;;;5052118;28;20033;-73
2023/09/02 02:27:20;;;;;;;52.58;30.15;;;18.10;99.90;;;;;;5042429;28;20420;-73
2023/09/02 02:29:46;;;;;;;53.90;33.95;;;18.10;99.90;;;;;;5051975;28;20509;-73
2023/09/02 02:32:11;;;;;;;58.58;32.75;;;18.10;99.90;;;;;;5051692;28;20100;-73
2023/09/02 02:34:37;;;;;;;70.07;35.08;;;18.10;99.90;;;;;;5052433;28;20107;-74
2023/09/02 02:37:03;;;;;;;65.13;34.83;;;18.10;99.90;;;;;;5051283;28;20037;-73
2023/09/02 02:39:29;;;;;;;64.90;33.92;;;18.10;99.90;;;;;;5051017;28;20075;-75
2023/09/02 02:41:55;;;;;;;56.28;34.22;;;18.10;99.90;;;;;;5049735;28;20025;-74
2023/09/02 02:44:20;;;;;;;74.38;34.25;;;18.10;99.90;;;;;;5049175;28;20524;-74
2023/09/02 02:46:47;;;;;;;77.72;38.28;;;18.20;99.90;;;;;;5049308;28;20032;-74
2023/09/02 02:49:12;;;;;;;93.35;37.53;;;18.20;99.90;;;;;;5065018;28;20028;-73
2023/09/02 02:51:38;;;;;;;108.25;37.45;;;18.10;99.90;;;;;;5052911;28;20025;-73
2023/09/02 02:54:04;;;;;;;78.50;34.35;;;18.10;99.90;;;;;;5057487;28;20020;-74
2023/09/02 02:56:29;;;;;;;79.78;35.20;;;18.10;99.90;;;;;;5064061;28;20075;-74
2023/09/02 02:58:55;;;;;;;62.47;34.20;;;18.10;99.90;;;;;;5050986;28;20032;-73
2023/09/02 03:01:21;;;;;;;150.50;41.33;;;18.20;99.90;;;;;;5059815;28;20829;-73
2023/09/02 03:03:47;;;;;;;77.07;34.28;;;18.20;99.90;;;;;;5071421;28;20020;-73
2023/09/02 03:06:20;;;;;;;63.55;33.78;;;18.20;99.90;;;;;;5064049;28;20055;-74
2023/09/02 03:08:46;;;;;;;93.50;35.38;;;18.20;99.90;;;;;;5067829;28;20031;-73
2023/09/02 03:11:12;;;;;;;102.13;37.42;;;18.20;99.90;;;;;;5050708;28;20028;-74
2023/09/02 03:13:38;;;;;;;70.18;34.83;;;18.20;99.90;;;;;;5050496;28;20021;-73
2023/09/02 03:16:04;;;;;;;78.50;33.53;;;18.20;99.90;;;;;;5050944;28;20025;-73
2023/09/02 03:18:30;;;;;;;96.00;36.53;;;18.20;99.90;;;;;;5050747;28;20071;-73
2023/09/02 03:21:03;;;;;;;63.47;31.80;;;18.20;99.90;;;;;;5050777;28;20417;-73
2023/09/02 03:23:29;;;;;;;106.10;36.05;;;18.20;99.90;;;;;;5049383;28;20029;-74
2023/09/02 03:25:55;;;;;;;72.50;32.53;;;18.20;99.90;;;;;;5058545;28;20503;-73
2023/09/02 03:28:20;;;;;;;88.55;34.65;;;18.20;99.90;;;;;;5060013;28;20061;-73
2023/09/02 03:30:46;;;;;;;124.03;36.00;;;18.20;99.90;;;;;;5069920;28;20075;-74
2023/09/02 03:33:14;;;;;;;66.47;31.50;;;18.20;99.90;;;;;;5069347;28;20082;-73
2023/09/02 03:35:40;;;;;;;95.65;32.80;;;18.20;99.90;;;;;;5068757;28;20473;-74
2023/09/02 03:38:06;;;;;;;78.68;31.88;;;18.20;99.90;;;;;;5069811;28;20028;-73
2023/09/02 03:40:33;;;;;;;221.15;41.58;;;18.20;99.90;;;;;;5067675;28;20024;-73
2023/09/02 03:42:59;;;;;;;93.47;34.35;;;18.20;99.90;;;;;;5069742;28;20033;-74
2023/09/02 03:45:24;;;;;;;64.75;32.38;;;18.20;99.90;;;;;;5070549;28;20017;-74
2023/09/02 03:47:50;;;;;;;82.45;31.05;;;18.20;99.90;;;;;;5068666;28;20036;-74
2023/09/02 03:50:26;;;;;;;67.47;32.03;;;18.20;99.90;;;;;;5058591;28;20047;-74
2023/09/02 03:52:52;;;;;;;108.72;33.88;;;18.20;99.90;;;;;;5067323;28;20035;-74
2023/09/02 03:55:18;;;;;;;77.82;31.55;;;18.20;99.90;;;;;;5049770;28;20049;-73
2023/09/02 03:57:43;;;;;;;108.45;33.92;;;18.20;99.90;;;;;;5047335;28;20024;-73
2023/09/02 04:00:09;;;;;;;99.47;34.88;;;18.20;99.90;;;;;;5050837;28;20377;-74
2023/09/02 04:02:35;;;;;;;82.40;32.10;;;18.20;99.90;;;;;;5050619;28;20066;-73
2023/09/02 04:05:03;;;;;;;106.25;34.97;;;18.20;99.90;;;;;;5050793;28;20488;-73
2023/09/02 04:07:29;;;;;;;106.10;34.45;;;18.20;99.90;;;;;;5051262;28;20037;-74
2023/09/02 04:09:56;;;;;;;62.70;30.80;;;18.20;99.90;;;;;;5050464;28;20355;-74
2023/09/02 04:12:22;;;;;;;140.50;34.53;;;18.10;99.90;;;;;;5050333;28;20031;-74
2023/09/02 04:14:48;;;;;;;98.30;35.72;;;18.20;99.90;;;;;;5050381;28;20653;-74
2023/09/02 04:17:13;;;;;;;73.28;31.10;;;18.20;99.90;;;;;;5050582;28;20033;-74
2023/09/02 04:19:39;;;;;;;66.32;31.75;;;18.20;99.90;;;;;;5050850;28;20635;-74
2023/09/02 04:22:04;;;;;;;117.82;35.67;;;18.10;99.90;;;;;;5049615;28;20106;-74
2023/09/02 04:24:30;;;;;;;95.55;33.85;;;18.20;99.90;;;;;;5049346;28;20021;-74
2023/09/02 04:26:57;;;;;;;196.95;39.25;;;18.10;99.90;;;;;;5050702;28;20028;-74
2023/09/02 04:29:23;;;;;;;206.90;42.22;;;18.10;99.90;;;;;;5050285;28;20502;-74
2023/09/02 04:31:48;;;;;;;188.18;40.30;;;18.10;99.90;;;;;;5051222;28;20063;-73
2023/09/02 04:34:14;;;;;;;95.93;36.60;;;18.10;99.90;;;;;;5050269;28;20527;-74
2023/09/02 04:36:40;;;;;;;240.10;42.42;;;18.10;99.90;;;;;;5051051;28;20033;-73
2023/09/02 04:39:06;;;;;;;97.50;34.80;;;18.10;99.90;;;;;;5048788;28;20025;-74
2023/09/02 04:41:32;;;;;;;120.55;37.08;;;18.20;99.90;;;;;;5049888;28;20074;-74
2023/09/02 04:43:58;;;;;;;120.65;37.30;;;18.20;99.90;;;;;;5049551;28;20017;-74
2023/09/02 04:46:24;;;;;;;147.40;40.38;;;18.20;99.90;;;;;;5049797;28;20379;-73
2023/09/02 04:48:50;;;;;;;96.28;34.92;;;18.20;99.90;;;;;;5049547;28;20013;-73
2023/09/02 04:51:15;;;;;;;81.78;37.17;;;18.20;99.90;;;;;;5046808;28;20044;-74
2023/09/02 04:53:41;;;;;;;93.85;40.53;;;18.20;99.90;;;;;;5049000;28;20056;-74
2023/09/02 04:56:08;;;;;;;81.55;36.40;;;18.30;99.90;;;;;;5058184;28;20041;-74
2023/09/02 04:58:33;;;;;;;113.65;37.13;;;18.20;99.90;;;;;;5060096;28;20076;-74
2023/09/02 05:01:12;;;;;;;197.93;42.58;;;18.30;99.90;;;;;;5054554;28;20437;-74
2023/09/02 05:03:38;;;;;;;100.82;32.50;;;18.30;99.90;;;;;;5064742;28;20047;-74
2023/09/02 05:06:05;;;;;;;122.00;39.55;;;18.20;99.90;;;;;;5062171;28;20585;-74
2023/09/02 05:08:34;;;;;;;103.80;37.92;;;18.20;99.90;;;;;;5057546;28;20481;-74
2023/09/02 05:11:00;;;;;;;101.68;37.47;;;18.20;99.90;;;;;;5059652;28;20477;-73
2023/09/02 05:13:25;;;;;;;90.93;37.65;;;18.20;99.90;;;;;;5056997;28;20025;-73
2023/09/02 05:15:51;;;;;;;122.10;39.20;;;18.20;99.90;;;;;;5053592;28;20201;-73
2023/09/02 05:18:16;;;;;;;72.57;33.47;;;18.20;99.90;;;;;;5061042;28;20024;-74
2023/09/02 05:20:42;;;;;;;125.60;39.30;;;18.30;99.90;;;;;;5063055;28;20024;-74
2023/09/02 05:23:07;;;;;;;99.18;36.33;;;18.30;99.90;;;;;;5060919;28;20099;-73
2023/09/02 05:25:33;;;;;;;154.25;39.38;;;18.30;99.90;;;;;;5059167;28;20021;-74
2023/09/02 05:27:59;;;;;;;97.15;35.90;;;18.20;99.90;;;;;;5065889;28;20028;-74
2023/09/02 05:30:24;;;;;;;97.07;36.78;;;18.30;99.90;;;;;;5053346;28;20040;-73
2023/09/02 05:32:53;;;;;;;61.72;33.10;;;18.30;99.90;;;;;;5065797;28;20028;-73
2023/09/02 05:35:18;;;;;;;70.88;32.03;;;18.30;99.90;;;;;;5062082;28;20031;-73
2023/09/02 05:37:44;;;;;;;89.03;36.22;;;18.30;99.90;;;;;;5064239;28;20028;-73
2023/09/02 05:40:10;;;;;;;68.43;33.20;;;18.30;99.90;;;;;;5061155;28;20389;-73
2023/09/02 05:42:36;;;;;;;78.32;34.35;;;18.30;99.90;;;;;;5063351;28;20029;-74
2023/09/02 05:45:01;;;;;;;73.82;34.78;;;18.30;99.90;;;;;;5061430;28;20444;-74
2023/09/02 05:47:27;;;;;;;79.22;34.35;;;18.40;99.90;;;;;;5065348;28;20100;-73
2023/09/02 05:49:52;;;;;;;111.22;37.05;;;18.40;99.90;;;;;;5063766;28;20013;-73
2023/09/02 05:52:18;;;;;;;63.47;34.60;;;18.30;99.90;;;;;;5056967;28;20090;-74
2023/09/02 05:54:44;;;;;;;71.18;34.20;;;18.40;99.90;;;;;;5067002;28;20032;-74
2023/09/02 05:57:10;;;;;;;59.35;30.05;;;18.40;99.90;;;;;;5065086;28;20037;-73
2023/09/02 05:59:35;;;;;;;67.60;33.25;;;18.40;99.90;;;;;;5056951;28;20039;-73
2023/09/02 06:02:01;;;;;;;56.45;29.77;;;18.50;99.90;;;;;;5051585;28;20474;-73
2023/09/02 06:04:27;;;;;;;64.00;32.80;;;18.50;99.90;;;;;;5048299;28;20024;-73
2023/09/02 06:06:53;;;;;;;62.30;32.85;;;18.50;99.90;;;;;;5056168;28;20037;-73
2023/09/02 06:09:19;;;;;;;105.57;36.08;;;18.50;99.90;;;;;;5051504;28;20028;-73
2023/09/02 06:11:44;;;;;;;70.30;32.13;;;18.50;99.90;;;;;;5056351;28;20025;-74
2023/09/02 06:14:10;;;;;;;55.42;32.55;;;18.60;99.90;;;;;;5056664;28;20377;-74
2023/09/02 06:16:36;;;;;;;81.53;32.78;;;18.50;99.90;;;;;;5054278;28;20075;-73
2023/09/02 06:19:02;;;;;;;65.05;31.63;;;18.60;99.90;;;;;;5054857;28;20086;-74
2023/09/02 06:21:27;;;;;;;63.35;29.85;;;18.60;99.90;;;;;;5055783;28;20017;-74
2023/09/02 06:23:53;;;;;;;106.45;37.38;;;18.60;99.90;;;;;;5056341;28;20025;-73
2023/09/02 06:26:18;;;;;;;120.90;38.22;;;18.60;99.90;;;;;;5055161;28;20048;-74
2023/09/02 06:28:45;;;;;;;73.25;34.50;;;18.70;99.90;;;;;;5052703;28;20043;-74
2023/09/02 06:31:11;;;;;;;58.35;33.05;;;18.80;99.90;;;;;;5053460;28;20027;-73
2023/09/02 06:33:37;;;;;;;80.68;35.13;;;18.80;99.90;;;;;;5055256;28;20099;-73
2023/09/02 06:36:13;;;;;;;115.25;38.50;;;18.80;99.90;;;;;;5052627;28;20108;-73
2023/09/02 06:38:38;;;;;;;95.57;38.03;;;18.80;99.90;;;;;;5053949;28;20568;-73
2023/09/02 06:41:09;;;;;;;63.13;30.83;;;18.80;99.90;;;;;;5056332;28;20052;-73
2023/09/02 06:43:35;;;;;;;63.47;34.08;;;18.80;99.90;;;;;;5054483;28;20024;-74
2023/09/02 06:46:17;;;;;;;83.95;34.90;;;18.80;99.90;;;;;;5055783;28;20029;-73
2023/09/02 06:48:46;;;;;;;93.75;34.95;;;18.90;99.90;;;;;;5054470;28;20055;-74
2023/09/02 06:51:13;;;;;;;83.75;34.00;;;18.90;99.90;;;;;;5066050;28;20032;-74
2023/09/02 06:53:42;;;;;;;69.32;33.20;;;18.90;99.90;;;;;;5052336;28;20052;-69
2023/09/02 06:56:09;;;;;;;49.72;29.95;;;18.90;99.90;;;;;;5052042;28;20048;-69
2023/09/02 06:58:37;;;;;;;51.10;31.23;;;18.90;99.90;;;;;;5052208;28;20460;-69
2023/09/02 07:01:03;;;;;;;48.15;28.73;;;18.90;99.90;;;;;;5056936;28;20021;-69
2023/09/02 07:03:28;;;;;;;53.05;29.45;;;18.90;99.90;;;;;;5057933;28;20480;-69
2023/09/02 07:06:02;;;;;;;66.68;33.15;;;18.90;99.90;;;;;;5057165;28;20056;-70
2023/09/02 07:08:27;;;;;;;70.40;33.10;;;19.00;99.90;;;;;;5062306;28;20101;-69
2023/09/02 07:10:53;;;;;;;49.65;31.15;;;19.00;99.90;;;;;;5062453;28;20028;-70
2023/09/02 07:13:18;;;;;;;58.58;31.35;;;19.00;99.90;;;;;;5057125;28;20036;-69
2023/09/02 07:15:44;;;;;;;61.65;32.85;;;19.00;99.90;;;;;;5055088;28;20076;-69
2023/09/02 07:18:10;;;;;;;68.45;35.17;;;19.00;99.90;;;;;;5055731;28;20082;-70
2023/09/02 07:20:36;;;;;;;88.80;38.50;;;19.00;99.90;;;;;;5058204;28;20083;-70
2023/09/02 07:23:02;;;;;;;50.40;32.45;;;19.00;99.90;;;;;;5064299;28;20104;-69
2023/09/02 07:25:27;;;;;;;45.15;32.40;;;19.10;99.90;;;;;;5066200;28;20612;-69
2023/09/02 07:27:53;;;;;;;47.65;31.65;;;19.10;99.90;;;;;;5058226;28;20032;-69
2023/09/02 07:30:19;;;;;;;41.88;29.50;;;19.10;99.90;;;;;;5065201;28;20346;-69
2023/09/02 07:32:44;;;;;;;37.65;27.50;;;19.10;99.90;;;;;;5056274;28;20035;-69
2023/09/02 07:35:10;;;;;;;34.20;24.02;;;19.10;99.90;;;;;;5057580;28;20284;-69
2023/09/02 07:37:35;;;;;;;37.28;26.27;;;19.10;99.90;;;;;;5055023;28;20435;-69
2023/09/02 07:40:01;;;;;;;37.40;26.48;;;19.10;99.90;;;;;;5054854;28;20050;-69
2023/09/02 07:42:27;;;;;;;35.40;26.20;;;19.10;99.90;;;;;;5055482;28;20102;-70
2023/09/02 07:44:52;;;;;;;33.97;26.33;;;19.10;99.90;;;;;;5058475;28;20108;-70
2023/09/02 07:47:18;;;;;;;37.72;28.23;;;19.10;99.90;;;;;;5057518;28;20535;-69
2023/09/02 07:49:43;;;;;;;35.92;27.02;;;19.20;99.90;;;;;;5062299;28;20121;-70
2023/09/02 07:52:09;;;;;;;35.70;27.05;;;19.20;99.90;;;;;;5068732;28;20457;-69
2023/09/02 07:54:34;;;;;;;37.65;27.88;;;19.20;99.90;;;;;;5064787;28;20835;-70
2023/09/02 07:57:00;;;;;;;36.30;27.50;;;19.20;99.90;;;;;;5050274;28;20051;-69
2023/09/02 07:59:26;;;;;;;31.55;25.48;;;19.20;99.90;;;;;;5048824;28;20039;-70
2023/09/02 08:01:51;;;;;;;34.13;25.67;;;19.20;99.90;;;;;;5047124;28;20029;-69
2023/09/02 08:04:17;;;;;;;32.63;25.83;;;19.30;99.90;;;;;;5049950;28;20084;-70
2023/09/02 08:06:42;;;;;;;29.08;25.60;;;19.30;99.90;;;;;;5050296;28;20032;-70
2023/09/02 08:09:08;;;;;;;37.67;28.73;;;19.30;99.90;;;;;;5049300;28;20066;-69
2023/09/02 08:11:34;;;;;;;30.35;24.92;;;19.40;99.90;;;;;;5049321;28;20545;-69
2023/09/02 08:13:59;;;;;;;30.58;22.90;;;19.40;99.90;;;;;;5051214;28;20029;-69
2023/09/02 08:16:25;;;;;;;29.58;23.95;;;19.40;99.90;;;;;;5049934;28;20025;-69
2023/09/02 08:18:50;;;;;;;30.17;25.30;;;19.50;99.90;;;;;;5050329;28;20731;-69
2023/09/02 08:21:16;;;;;;;27.55;24.40;;;19.50;99.90;;;;;;5050529;28;20060;-69
2023/09/02 08:23:41;;;;;;;34.60;27.42;;;19.50;99.90;;;;;;5051560;28;20057;-69
2023/09/02 08:26:13;;;;;;;28.27;22.13;;;19.60;99.90;;;;;;5050164;28;20017;-69
2023/09/02 08:28:42;;;;;;;34.72;25.92;;;19.60;99.90;;;;;;5052280;28;20095;-70
2023/09/02 08:31:11;;;;;;;31.52;26.70;;;19.60;99.90;;;;;;5049245;28;20082;-69
2023/09/02 08:33:37;;;;;;;33.88;25.33;;;19.60;99.90;;;;;;5052031;28;20131;-70
2023/09/02 08:36:03;;;;;;;30.77;24.17;;;19.60;99.90;;;;;;5051122;28;20066;-69
2023/09/02 08:38:29;;;;;;;30.52;25.50;;;19.70;99.90;;;;;;5052595;28;20124;-70
2023/09/02 08:40:57;;;;;;;32.85;26.45;;;19.90;99.90;;;;;;5051488;28;20040;-70
2023/09/02 08:43:25;;;;;;;30.05;25.55;;;20.00;99.90;;;;;;5052883;28;20024;-69
2023/09/02 08:45:55;;;;;;;24.40;21.50;;;20.20;99.90;;;;;;5051355;28;20098;-69
2023/09/02 08:48:24;;;;;;;26.02;23.17;;;20.30;99.90;;;;;;5048781;28;20029;-69
2023/09/02 08:50:54;;;;;;;24.30;21.55;;;20.40;99.90;;;;;;5056702;28;20724;-69
2023/09/02 08:53:21;;;;;;;24.05;21.20;;;20.50;99.90;;;;;;5038055;28;20032;-69
2023/09/02 08:55:48;;;;;;;26.00;22.77;;;20.50;99.90;;;;;;5048803;28;20042;-69
2023/09/02 08:58:14;;;;;;;26.63;22.67;;;20.60;99.90;;;;;;5048852;28;20025;-69
2023/09/02 09:00:41;;;;;;;25.13;21.25;;;20.60;99.90;;;;;;5048687;28;20489;-69
2023/09/02 09:03:11;;;;;;;28.13;24.25;;;20.70;99.90;;;;;;5055569;28;20044;-70
2023/09/02 09:05:40;;;;;;;26.05;23.42;;;20.60;99.90;;;;;;5051139;28;20382;-70
2023/09/02 09:08:06;;;;;;;22.25;19.85;;;20.60;99.90;;;;;;5048958;28;20029;-70
2023/09/02 09:10:34;;;;;;;24.55;21.65;;;20.60;99.90;;;;;;5048733;28;20021;-71
2023/09/02 09:13:04;;;;;;;25.38;22.75;;;20.60;99.90;;;;;;5049250;28;20029;-69
2023/09/02 09:15:30;;;;;;;22.70;20.40;;;20.70;99.90;;;;;;5048603;28;20474;-70
2023/09/02 09:17:56;;;;;;;23.98;21.25;;;20.80;99.90;;;;;;5049097;28;20508;-70
2023/09/02 09:20:22;;;;;;;22.13;19.58;;;20.90;99.90;;;;;;5048317;28;20033;-70
2023/09/02 09:22:50;;;;;;;24.27;21.83;;;21.10;99.90;;;;;;5049571;28;20053;-70
2023/09/02 09:25:16;;;;;;;21.80;19.45;;;21.20;99.90;;;;;;5048826;28;20017;-69
2023/09/02 09:27:42;;;;;;;24.38;21.80;;;21.40;99.90;;;;;;5049038;28;20062;-70
2023/09/02 09:30:26;;;;;;;23.08;20.90;;;21.50;99.90;;;;;;5048753;28;20055;-70
2023/09/02 09:33:00;;;;;;;23.75;21.25;;;21.50;99.90;;;;;;5049293;28;20021;-69
2023/09/02 09:35:27;;;;;;;21.60;19.48;;;21.60;99.90;;;;;;5056923;28;20123;-69
2023/09/02 09:37:56;;;;;;;23.83;21.40;;;21.60;99.90;;;;;;5063728;28;20021;-70
2023/09/02 09:40:32;;;;;;;22.27;20.13;;;21.60;99.90;;;;;;5058628;28;20033;-70
2023/09/02 09:42:59;;;;;;;21.55;19.35;;;21.70;99.90;;;;;;5052334;28;20123;-69
2023/09/02 09:45:26;;;;;;;22.27;19.88;;;21.80;99.90;;;;;;5060320;28;20099;-70
2023/09/02 09:47:52;;;;;;;22.92;20.63;;;21.90;99.90;;;;;;5061898;28;20028;-70
2023/09/02 09:50:18;;;;;;;19.13;17.20;;;22.00;99.90;;;;;;5065521;28;20025;-70
2023/09/02 09:53:04;;;;;;;18.40;16.60;;;22.10;99.90;;;;;;5053515;28;20025;-70
2023/09/02 09:55:30;;;;;;;20.55;18.63;;;22.20;99.90;;;;;;5048279;28;20141;-70
2023/09/02 09:57:57;;;;;;;17.90;16.20;;;22.30;99.90;;;;;;5048436;28;20025;-70
2023/09/02 10:00:23;;;;;;;18.10;16.15;;;22.30;99.90;;;;;;5049129;28;20141;-71
2023/09/02 10:02:53;;;;;;;16.92;15.30;;;22.30;99.90;;;;;;5050148;28;20320;-70
2023/09/02 10:05:29;;;;;;;17.55;15.82;;;22.30;99.90;;;;;;5048957;28;20112;-70
2023/09/02 10:08:01;;;;;;;19.10;17.25;;;22.40;99.90;;;;;;5048855;28;20116;-70
2023/09/02 10:10:37;;;;;;;18.30;16.50;;;22.50;99.90;;;;;;5050210;28;20029;-70
2023/09/02 10:13:03;;;;;;;19.05;17.27;;;22.50;99.90;;;;;;5049548;28;20616;-70
2023/09/02 10:15:30;;;;;;;18.27;16.60;;;22.50;99.90;;;;;;5050767;28;20082;-70
2023/09/02 10:18:04;;;;;;;17.35;15.68;;;22.60;99.90;;;;;;5049558;28;20110;-70
2023/09/02 10:20:35;;;;;;;17.90;16.23;;;22.60;99.90;;;;;;5049641;28;20029;-70
2023/09/02 10:23:10;;;;;;;18.05;16.35;;;22.60;99.90;;;;;;5049192;28;20354;-70
2023/09/02 10:26:08;;;;;;;15.00;13.50;;;22.70;99.90;;;;;;5049999;28;20029;-70
2023/09/02 10:28:40;;;;;;;18.10;16.42;;;22.70;99.90;;;;;;5047533;28;20060;-70
2023/09/02 10:31:22;;;;;;;15.88;14.38;;;22.70;99.90;;;;;;5046924;28;20490;-70
2023/09/02 10:34:04;;;;;;;14.88;13.48;;;22.70;99.90;;;;;;5048509;28;20124;-70
2023/09/02 10:36:32;;;;;;;16.13;14.63;;;22.70;99.90;;;;;;5050831;28;20111;-70
2023/09/02 10:39:02;;;;;;;17.55;15.85;;;22.80;99.90;;;;;;5049653;28;20029;-70
2023/09/02 10:41:29;;;;;;;18.02;16.40;;;22.90;99.90;;;;;;5051442;28;20024;-70
2023/09/02 10:43:56;;;;;;;17.55;15.75;;;22.90;99.90;;;;;;5051681;28;20052;-70
2023/09/02 10:46:21;;;;;;;18.40;16.65;;;22.90;99.90;;;;;;5053831;28;20782;-70
2023/09/02 10:48:48;;;;;;;16.92;15.23;;;22.90;99.90;;;;;;5052722;28;20060;-70
2023/09/02 10:51:14;;;;;;;15.43;14.13;;;22.90;99.90;;;;;;5052658;28;20116;-70
2023/09/02 10:53:52;;;;;;;16.27;14.77;;;22.90;99.90;;;;;;5051014;28;20083;-70
2023/09/02 10:56:34;;;;;;;14.07;12.77;;;22.90;99.90;;;;;;5050860;28;20516;-70
2023/09/02 10:59:05;;;;;;;12.83;11.73;;;23.00;99.90;;;;;;5057166;28;20104;-70
2023/09/02 11:01:49;;;;;;;12.90;11.80;;;23.10;99.90;;;;;;5060855;28;20036;-70
2023/09/02 11:04:40;;;;;;;13.30;12.15;;;23.10;99.90;;;;;;5065641;28;20029;-70
2023/09/02 11:07:19;;;;;;;13.00;11.90;;;23.10;99.90;;;;;;5063394;28;20497;-70
2023/09/02 11:10:01;;;;;;;11.90;10.75;;;23.10;99.90;;;;;;5044171;28;20020;-70
2023/09/02 11:12:27;;;;;;;11.27;10.27;;;23.00;99.90;;;;;;5055754;28;20544;-70
2023/09/02 11:15:11;;;;;;;10.73;9.73;;;22.90;99.90;;;;;;5055751;28;20029;-70
2023/09/02 11:17:39;;;;;;;10.68;9.77;;;22.90;99.90;;;;;;5061096;28;20381;-70
2023/09/02 11:20:13;;;;;;;10.27;9.27;;;22.90;99.90;;;;;;5060449;28;20021;-70
2023/09/02 11:22:49;;;;;;;9.90;9.10;;;22.90;99.90;;;;;;5053201;28;20020;-70
2023/09/02 11:25:23;;;;;;;12.57;11.35;;;23.00;99.90;;;;;;5062306;28;20063;-71
2023/09/02 11:27:50;;;;;;;10.73;9.73;;;23.00;99.90;;;;;;5066367;28;20545;-70
2023/09/02 11:30:16;;;;;;;11.30;10.32;;;23.00;99.90;;;;;;5063159;28;20021;-71
2023/09/02 11:32:45;;;;;;;10.65;9.82;;;23.10;99.90;;;;;;5065919;28;20024;-70
2023/09/02 11:35:22;;;;;;;9.18;8.40;;;23.10;99.90;;;;;;5062352;28;20021;-70
2023/09/02 11:37:48;;;;;;;9.68;8.88;;;23.20;99.90;;;;;;5059321;28;20049;-70
2023/09/02 11:40:14;;;;;;;8.80;8.10;;;23.20;99.90;;;;;;5061023;28;20099;-71
2023/09/02 11:42:50;;;;;;;8.77;8.07;;;23.30;99.90;;;;;;5066263;28;20132;-70
2023/09/02 11:45:16;;;;;;;8.45;7.75;;;23.40;99.70;;;;;;5059437;28;20023;-70
2023/09/02 11:47:42;;;;;;;8.50;7.75;;;23.30;99.50;;;;;;5065859;28;20024;-70
2023/09/02 11:50:18;;;;;;;8.77;8.02;;;23.40;99.60;;;;;;5065893;28;20396;-70
2023/09/02 11:52:44;;;;;;;9.35;8.65;;;23.40;99.60;;;;;;5054405;28;20062;-70
2023/09/02 11:55:15;;;;;;;9.18;8.43;;;23.40;99.70;;;;;;5049626;28;20136;-70
2023/09/02 11:57:41;;;;;;;8.30;7.60;;;23.50;99.40;;;;;;5050079;28;20045;-70
2023/09/02 12:00:08;;;;;;;9.98;9.00;;;23.40;99.70;;;;;;5050264;28;20036;-70
2023/09/02 12:02:37;;;;;;;7.60;7.00;;;23.30;99.40;;;;;;5049644;28;20068;-70
2023/09/02 12:05:04;;;;;;;8.43;7.63;;;23.10;99.50;;;;;;5048574;28;20425;-70
2023/09/02 12:07:32;;;;;;;8.95;8.05;;;23.00;99.70;;;;;;5053449;28;20066;-70
2023/09/02 12:10:03;;;;;;;9.95;9.07;;;22.90;99.90;;;;;;5061980;28;20052;-70
2023/09/02 12:12:29;;;;;;;9.07;8.27;;;23.00;99.90;;;;;;5052692;28;20473;-70
2023/09/02 12:14:57;;;;;;;9.35;8.55;;;23.10;99.90;;;;;;5057549;28;20029;-70
2023/09/02 12:17:23;;;;;;;9.07;8.38;;;23.10;99.90;;;;;;5049976;28;20029;-70
2023/09/02 12:19:49;;;;;;;9.27;8.48;;;23.20;99.90;;;;;;5055644;28;20025;-69
2023/09/02 12:22:15;;;;;;;8.93;8.13;;;23.20;99.90;;;;;;5046748;28;20029;-70
2023/09/02 12:24:40;;;;;;;9.07;8.38;;;23.20;99.90;;;;;;5046299;28;20029;-70
2023/09/02 12:27:06;;;;;;;10.38;9.48;;;23.30;99.90;;;;;;5046559;28;20075;-70
2023/09/02 12:29:31;;;;;;;8.90;8.20;;;23.40;99.90;;;;;;5061389;28;20033;-70
2023/09/02 12:32:01;;;;;;;8.60;7.80;;;23.40;99.90;;;;;;5056241;28;20029;-70